sensor_id;sensor_type;location;lat;lon;timestamp;pressure;altitude;pressure_sealevel;temperature;humidity
36092;BME280;22147;52.388;13.390;2023-04-05T00:00:47;101881.91;;;-2.87;100.00
36092;BME280;22147;52.388;13.390;2023-04-05T00:03:17;101874.19;;;-2.90;100.00
36092;BME280;22147;52.388;13.390;2023-04-05T00:05:47;101871.88;;;-2.93;100.00
36092;BME280;22147;52.388;13.390;2023-04-05T00:08:19;101875.66;;;-2.94;100.00
36092;BME280;22147;52.388;13.390;2023-04-05T00:10:57;101875.03;;;-2.96;100.00
36092;BME280;22147;52.388;13.390;2023-04-05T00:13:27;101872.72;;;-2.99;100.00
36092;BME280;22147;52.388;13.390;2023-04-05T00:15:57;101876.47;;;-3.00;100.00
36092;BME280;22147;52.388;13.390;2023-04-05T00:18:30;101871.69;;;-3.04;100.00
36092;BME280;22147;52.388;13.390;2023-04-05T00:21:03;101873.75;;;-3.00;100.00
36092;BME280;22147;52.388;13.390;2023-04-05T00:23:33;101866.63;;;-2.94;100.00
36092;BME280;22147;52.388;13.390;2023-04-05T00:26:08;101869.97;;;-2.92;100.00
36092;BME280;22147;52.388;13.390;2023-04-05T00:28:36;101869.34;;;-3.01;100.00
36092;BME280;22147;52.388;13.390;2023-04-05T00:31:08;101867.47;;;-3.07;100.00
36092;BME280;22147;52.388;13.390;2023-04-05T00:33:39;101867.28;;;-3.12;100.00
36092;BME280;22147;52.388;13.390;2023-04-05T00:36:11;101866.84;;;-3.16;100.00
36092;BME280;22147;52.388;13.390;2023-04-05T00:38:45;101862.88;;;-3.20;100.00
36092;BME280;22147;52.388;13.390;2023-04-05T00:41:16;101864.97;;;-3.22;100.00
36092;BME280;22147;52.388;13.390;2023-04-05T00:43:47;101865.41;;;-3.25;100.00
36092;BME280;22147;52.388;13.390;2023-04-05T00:46:18;101863.13;;;-3.28;100.00
36092;BME280;22147;52.388;13.390;2023-04-05T00:48:49;101867.91;;;-3.30;100.00
36092;BME280;22147;52.388;13.390;2023-04-05T00:51:19;101859.34;;;-3.34;100.00
36092;BME280;22147;52.388;13.390;2023-04-05T00:53:51;101857.66;;;-3.35;100.00
36092;BME280;22147;52.388;13.390;2023-04-05T00:56:22;101860.59;;;-3.36;100.00
36092;BME280;22147;52.388;13.390;2023-04-05T00:58:53;101854.31;;;-3.37;100.00
36092;BME280;22147;52.388;13.390;2023-04-05T01:01:24;101848.25;;;-3.39;100.00
36092;BME280;22147;52.388;13.390;2023-04-05T01:04:00;101853.03;;;-3.41;100.00
36092;BME280;22147;52.388;13.390;2023-04-05T01:07:11;101849.28;;;-3.46;100.00
36092;BME280;22147;52.388;13.390;2023-04-05T01:10:01;101845.94;;;-3.49;100.00
36092;BME280;22147;52.388;13.390;2023-04-05T01:12:36;101858.91;;;-3.51;100.00
36092;BME280;22147;52.388;13.390;2023-04-05T01:15:08;101861.00;;;-3.53;100.00
36092;BME280;22147;52.388;13.390;2023-04-05T01:17:39;101857.84;;;-3.56;100.00
36092;BME280;22147;52.388;13.390;2023-04-05T01:20:12;101851.56;;;-3.57;100.00
36092;BME280;22147;52.388;13.390;2023-04-05T01:26:32;101848.22;;;-3.59;100.00
36092;BME280;22147;52.388;13.390;2023-04-05T01:32:59;101843.44;;;-3.63;100.00
36092;BME280;22147;52.388;13.390;2023-04-05T01:36:01;101851.75;;;-3.65;100.00
36092;BME280;22147;52.388;13.390;2023-04-05T01:38:39;101851.97;;;-3.66;100.00
36092;BME280;22147;52.388;13.390;2023-04-05T01:41:13;101852.59;;;-3.71;100.00
36092;BME280;22147;52.388;13.390;2023-04-05T01:43:44;101843.81;;;-3.73;100.00
36092;BME280;22147;52.388;13.390;2023-04-05T01:46:15;101852.59;;;-3.71;100.00
36092;BME280;22147;52.388;13.390;2023-04-05T01:48:45;101841.94;;;-3.73;100.00
36092;BME280;22147;52.388;13.390;2023-04-05T01:51:15;101840.06;;;-3.72;100.00
36092;BME280;22147;52.388;13.390;2023-04-05T01:53:46;101842.53;;;-3.77;100.00
36092;BME280;22147;52.388;13.390;2023-04-05T01:56:16;101844.00;;;-3.81;100.00
36092;BME280;22147;52.388;13.390;2023-04-05T01:58:46;101841.72;;;-3.84;100.00
36092;BME280;22147;52.388;13.390;2023-04-05T02:01:15;101839.38;;;-3.88;100.00
36092;BME280;22147;52.388;13.390;2023-04-05T02:03:45;101843.56;;;-3.92;100.00
36092;BME280;22147;52.388;13.390;2023-04-05T02:06:15;101833.13;;;-3.95;100.00
36092;BME280;22147;52.388;13.390;2023-04-05T02:08:45;101830.81;;;-3.98;100.00
36092;BME280;22147;52.388;13.390;2023-04-05T02:11:15;101836.25;;;-3.98;100.00
36092;BME280;22147;52.388;13.390;2023-04-05T02:13:45;101830.81;;;-3.98;100.00
36092;BME280;22147;52.388;13.390;2023-04-05T02:16:15;101830.19;;;-4.00;100.00
36092;BME280;22147;52.388;13.390;2023-04-05T02:18:46;101826.22;;;-4.04;100.00
36092;BME280;22147;52.388;13.390;2023-04-05T02:21:19;101830.59;;;-4.03;100.00
36092;BME280;22147;52.388;13.390;2023-04-05T02:23:51;101836.22;;;-4.04;100.00
36092;BME280;22147;52.388;13.390;2023-04-05T02:26:22;101832.03;;;-4.07;100.00
36092;BME280;22147;52.388;13.390;2023-04-05T02:28:52;101830.56;;;-4.10;100.00
36092;BME280;22147;52.388;13.390;2023-04-05T02:31:22;101824.50;;;-4.12;100.00
36092;BME280;22147;52.388;13.390;2023-04-05T02:33:52;101828.47;;;-4.14;100.00
36092;BME280;22147;52.388;13.390;2023-04-05T02:36:22;101829.09;;;-4.12;100.00
36092;BME280;22147;52.388;13.390;2023-04-05T02:38:53;101836.41;;;-4.13;100.00
36092;BME280;22147;52.388;13.390;2023-04-05T02:41:24;101832.84;;;-4.06;100.00
36092;BME280;22147;52.388;13.390;2023-04-05T02:43:54;101822.25;;;-3.95;100.00
36092;BME280;22147;52.388;13.390;2023-04-05T02:46:24;101819.34;;;-3.86;100.00
36092;BME280;22147;52.388;13.390;2023-04-05T02:48:54;101820.63;;;-3.82;100.00
36092;BME280;22147;52.388;13.390;2023-04-05T02:51:24;101815.81;;;-3.80;100.00
36092;BME280;22147;52.388;13.390;2023-04-05T02:53:55;101820.00;;;-3.78;100.00
36092;BME280;22147;52.388;13.390;2023-04-05T02:56:25;101812.50;;;-3.69;100.00
36092;BME280;22147;52.388;13.390;2023-04-05T02:58:55;101826.06;;;-3.69;100.00
36092;BME280;22147;52.388;13.390;2023-04-05T03:01:25;101817.53;;;-3.66;100.00
36092;BME280;22147;52.388;13.390;2023-04-05T03:03:55;101809.78;;;-3.62;100.00
36092;BME280;22147;52.388;13.390;2023-04-05T03:06:25;101818.34;;;-3.59;100.00
36092;BME280;22147;52.388;13.390;2023-04-05T03:08:55;101815.00;;;-3.54;100.00
36092;BME280;22147;52.388;13.390;2023-04-05T03:11:25;101808.13;;;-3.50;100.00
36092;BME280;22147;52.388;13.390;2023-04-05T03:13:55;101807.72;;;-3.40;100.00
36092;BME280;22147;52.388;13.390;2023-04-05T03:16:25;101801.22;;;-3.33;100.00
36092;BME280;22147;52.388;13.390;2023-04-05T03:18:55;101796.00;;;-3.28;100.00
36092;BME280;22147;52.388;13.390;2023-04-05T03:21:25;101800.59;;;-3.21;100.00
36092;BME280;22147;52.388;13.390;2023-04-05T03:23:55;101800.81;;;-3.16;100.00
36092;BME280;22147;52.388;13.390;2023-04-05T03:26:25;101797.25;;;-3.17;100.00
36092;BME280;22147;52.388;13.390;2023-04-05T03:28:55;101792.66;;;-3.16;100.00
36092;BME280;22147;52.388;13.390;2023-04-05T03:31:25;101794.34;;;-3.15;100.00
36092;BME280;22147;52.388;13.390;2023-04-05T03:33:55;101790.34;;;-3.13;100.00
36092;BME280;22147;52.388;13.390;2023-04-05T03:36:25;101796.19;;;-3.02;100.00
36092;BME280;22147;52.388;13.390;2023-04-05T03:38:57;101787.59;;;-2.99;100.00
36092;BME280;22147;52.388;13.390;2023-04-05T03:41:25;101789.28;;;-2.92;100.00
36092;BME280;22147;52.388;13.390;2023-04-05T03:43:53;101790.91;;;-2.84;100.00
36092;BME280;22147;52.388;13.390;2023-04-05T03:46:22;101787.16;;;-2.83;100.00
36092;BME280;22147;52.388;13.390;2023-04-05T03:48:50;101787.78;;;-2.81;100.00
36092;BME280;22147;52.388;13.390;2023-04-05T03:51:19;101789.69;;;-2.81;100.00
36092;BME280;22147;52.388;13.390;2023-04-05T03:53:49;101789.69;;;-2.81;100.00
36092;BME280;22147;52.388;13.390;2023-04-05T03:56:19;101799.69;;;-2.82;100.00
36092;BME280;22147;52.388;13.390;2023-04-05T03:58:47;101784.22;;;-2.81;100.00
36092;BME280;22147;52.388;13.390;2023-04-05T04:01:15;101782.34;;;-2.81;100.00
36092;BME280;22147;52.388;13.390;2023-04-05T04:03:44;101780.66;;;-2.82;100.00
36092;BME280;22147;52.388;13.390;2023-04-05T04:06:12;101784.22;;;-2.81;100.00
36092;BME280;22147;52.388;13.390;2023-04-05T04:08:47;101784.00;;;-2.80;100.00
36092;BME280;22147;52.388;13.390;2023-04-05T04:11:17;101777.91;;;-2.75;100.00
36092;BME280;22147;52.388;13.390;2023-04-05T04:13:47;101780.44;;;-2.74;100.00
36092;BME280;22147;52.388;13.390;2023-04-05T04:16:17;101785.47;;;-2.71;100.00
36092;BME280;22147;52.388;13.390;2023-04-05T04:18:48;101774.13;;;-2.68;100.00
36092;BME280;22147;52.388;13.390;2023-04-05T04:21:18;101783.97;;;-2.67;100.00
36092;BME280;22147;52.388;13.390;2023-04-05T04:23:50;101780.81;;;-2.63;100.00
36092;BME280;22147;52.388;13.390;2023-04-05T04:26:21;101776.59;;;-2.53;100.00
36092;BME280;22147;52.388;13.390;2023-04-05T04:28:56;101779.75;;;-2.56;100.00
36092;BME280;22147;52.388;13.390;2023-04-05T04:31:25;101782.47;;;-2.56;100.00
36092;BME280;22147;52.388;13.390;2023-04-05T04:33:53;101782.03;;;-2.53;100.00
36092;BME280;22147;52.388;13.390;2023-04-05T04:36:22;101781.63;;;-2.50;100.00
36092;BME280;22147;52.388;13.390;2023-04-05T04:39:04;101783.31;;;-2.55;100.00
36092;BME280;22147;52.388;13.390;2023-04-05T04:41:35;101786.19;;;-2.50;100.00
36092;BME280;22147;52.388;13.390;2023-04-05T04:44:06;101784.53;;;-2.51;100.00
36092;BME280;22147;52.388;13.390;2023-04-05T04:46:37;101782.84;;;-2.52;100.00
36092;BME280;22147;52.388;13.390;2023-04-05T04:49:12;101784.13;;;-2.55;100.00
36092;BME280;22147;52.388;13.390;2023-04-05T04:51:42;101779.09;;;-2.51;100.00
36092;BME280;22147;52.388;13.390;2023-04-05T04:54:12;101783.06;;;-2.47;100.00
36092;BME280;22147;52.388;13.390;2023-04-05T04:56:42;101781.59;;;-2.43;100.00
36092;BME280;22147;52.388;13.390;2023-04-05T04:59:12;101779.69;;;-2.42;100.00
36092;BME280;22147;52.388;13.390;2023-04-05T05:01:46;101780.31;;;-2.40;100.00
36092;BME280;22147;52.388;13.390;2023-04-05T05:04:16;101774.44;;;-2.37;100.00
36092;BME280;22147;52.388;13.390;2023-04-05T05:06:51;101784.69;;;-2.33;100.00
36092;BME280;22147;52.388;13.390;2023-04-05T05:09:21;101790.47;;;-2.22;100.00
36092;BME280;22147;52.388;13.390;2023-04-05T05:11:51;101790.88;;;-2.19;100.00
36092;BME280;22147;52.388;13.390;2023-04-05T05:14:21;101783.97;;;-2.15;100.00
36092;BME280;22147;52.388;13.390;2023-04-05T05:16:51;101782.69;;;-2.12;100.00
36092;BME280;22147;52.388;13.390;2023-04-05T05:19:22;101784.13;;;-2.10;100.00
36092;BME280;22147;52.388;13.390;2023-04-05T05:21:52;101791.84;;;-2.00;100.00
36092;BME280;22147;52.388;13.390;2023-04-05T05:24:22;101774.41;;;-1.92;100.00
36092;BME280;22147;52.388;13.390;2023-04-05T05:26:53;101786.50;;;-1.81;100.00
36092;BME280;22147;52.388;13.390;2023-04-05T05:29:23;101782.88;;;-1.75;100.00
36092;BME280;22147;52.388;13.390;2023-04-05T05:31:54;101783.25;;;-1.72;100.00
36092;BME280;22147;52.388;13.390;2023-04-05T05:34:23;101776.31;;;-1.68;100.00
36092;BME280;22147;52.388;13.390;2023-04-05T05:36:56;101776.84;;;-1.52;100.00
36092;BME280;22147;52.388;13.390;2023-04-05T05:39:24;101775.94;;;-1.46;100.00
36092;BME280;22147;52.388;13.390;2023-04-05T05:41:54;101784.22;;;-1.34;100.00
36092;BME280;22147;52.388;13.390;2023-04-05T05:44:24;101786.06;;;-1.28;100.00
36092;BME280;22147;52.388;13.390;2023-04-05T05:46:55;101779.66;;;-1.15;100.00
36092;BME280;22147;52.388;13.390;2023-04-05T05:49:25;101779.16;;;-1.06;100.00
36092;BME280;22147;52.388;13.390;2023-04-05T05:51:55;101773.38;;;-0.97;100.00
36092;BME280;22147;52.388;13.390;2023-04-05T05:54:26;101774.00;;;-0.95;100.00
36092;BME280;22147;52.388;13.390;2023-04-05T05:56:56;101782.78;;;-0.93;100.00
36092;BME280;22147;52.388;13.390;2023-04-05T05:59:27;101776.44;;;-0.87;100.00
36092;BME280;22147;52.388;13.390;2023-04-05T06:01:57;101772.44;;;-0.85;100.00
36092;BME280;22147;52.388;13.390;2023-04-05T06:04:27;101777.97;;;-0.73;100.00
36092;BME280;22147;52.388;13.390;2023-04-05T06:06:57;101776.00;;;-0.66;100.00
36092;BME280;22147;52.388;13.390;2023-04-05T06:09:27;101765.75;;;-0.52;100.00
36092;BME280;22147;52.388;13.390;2023-04-05T06:11:58;101777.50;;;-0.51;100.00
36092;BME280;22147;52.388;13.390;2023-04-05T06:14:28;101769.00;;;-0.43;100.00
36092;BME280;22147;52.388;13.390;2023-04-05T06:16:58;101770.13;;;-0.32;100.00
36092;BME280;22147;52.388;13.390;2023-04-05T06:19:28;101765.94;;;-0.16;100.00
36092;BME280;22147;52.388;13.390;2023-04-05T06:21:58;101765.03;;;0.02;100.00
36092;BME280;22147;52.388;13.390;2023-04-05T06:24:29;101755.22;;;0.12;100.00
36092;BME280;22147;52.388;13.390;2023-04-05T06:26:59;101757.25;;;0.17;100.00
36092;BME280;22147;52.388;13.390;2023-04-05T06:29:30;101747.66;;;0.26;100.00
36092;BME280;22147;52.388;13.390;2023-04-05T06:32:02;101752.69;;;0.65;100.00
36092;BME280;22147;52.388;13.390;2023-04-05T06:34:33;101755.06;;;0.85;100.00
36092;BME280;22147;52.388;13.390;2023-04-05T06:37:00;101753.41;;;1.19;100.00
36092;BME280;22147;52.388;13.390;2023-04-05T06:39:29;101764.09;;;1.20;100.00
36092;BME280;22147;52.388;13.390;2023-04-05T06:41:57;101755.56;;;1.17;100.00
36092;BME280;22147;52.388;13.390;2023-04-05T06:44:25;101771.97;;;1.17;100.00
36092;BME280;22147;52.388;13.390;2023-04-05T06:46:54;101770.16;;;1.22;100.00
36092;BME280;22147;52.388;13.390;2023-04-05T06:49:22;101766.59;;;1.34;100.00
36092;BME280;22147;52.388;13.390;2023-04-05T06:51:51;101763.03;;;1.74;100.00
36092;BME280;22147;52.388;13.390;2023-04-05T06:54:19;101767.03;;;1.83;100.00
36092;BME280;22147;52.388;13.390;2023-04-05T06:56:50;101777.81;;;2.01;100.00
36092;BME280;22147;52.388;13.390;2023-04-05T06:59:19;101771.38;;;2.24;100.00
36092;BME280;22147;52.388;13.390;2023-04-05T07:01:47;101768.38;;;2.26;100.00
36092;BME280;22147;52.388;13.390;2023-04-05T07:04:16;101764.81;;;2.42;100.00
36092;BME280;22147;52.388;13.390;2023-04-05T07:06:44;101770.56;;;2.58;100.00
36092;BME280;22147;52.388;13.390;2023-04-05T07:09:13;101771.81;;;2.67;100.00
36092;BME280;22147;52.388;13.390;2023-04-05T07:11:40;101773.56;;;2.90;100.00
36092;BME280;22147;52.388;13.390;2023-04-05T07:14:10;101767.78;;;3.09;100.00
36092;BME280;22147;52.388;13.390;2023-04-05T07:16:40;101772.34;;;3.20;97.61
36092;BME280;22147;52.388;13.390;2023-04-05T07:19:10;101772.88;;;3.39;94.79
36092;BME280;22147;52.388;13.390;2023-04-05T07:21:40;101776.31;;;3.51;96.44
36092;BME280;22147;52.388;13.390;2023-04-05T07:24:11;101765.56;;;3.72;96.36
36092;BME280;22147;52.388;13.390;2023-04-05T07:26:41;101771.25;;;3.87;94.65
36092;BME280;22147;52.388;13.390;2023-04-05T07:29:11;101763.34;;;3.96;92.33
36092;BME280;22147;52.388;13.390;2023-04-05T07:31:42;101763.97;;;3.76;91.37
36092;BME280;22147;52.388;13.390;2023-04-05T07:34:12;101759.50;;;3.70;93.69
36092;BME280;22147;52.388;13.390;2023-04-05T07:36:42;101753.34;;;3.84;92.26
36092;BME280;22147;52.388;13.390;2023-04-05T07:39:12;101748.78;;;3.95;90.27
36092;BME280;22147;52.388;13.390;2023-04-05T07:41:42;101750.38;;;4.13;92.50
36092;BME280;22147;52.388;13.390;2023-04-05T07:44:12;101745.69;;;4.14;88.15
36092;BME280;22147;52.388;13.390;2023-04-05T07:46:43;101743.97;;;4.35;87.39
36092;BME280;22147;52.388;13.390;2023-04-05T07:49:17;101735.19;;;4.70;87.26
36092;BME280;22147;52.388;13.390;2023-04-05T07:51:47;101739.75;;;4.97;89.31
36092;BME280;22147;52.388;13.390;2023-04-05T07:54:18;101745.72;;;5.31;83.85
36092;BME280;22147;52.388;13.390;2023-04-05T07:56:49;101739.38;;;5.25;85.59
36092;BME280;22147;52.388;13.390;2023-04-05T07:59:20;101746.81;;;5.30;87.67
36092;BME280;22147;52.388;13.390;2023-04-05T08:01:50;101742.88;;;5.10;85.91
36092;BME280;22147;52.388;13.390;2023-04-05T08:04:25;101742.75;;;5.38;82.23
36092;BME280;22147;52.388;13.390;2023-04-05T08:06:55;101743.72;;;5.79;80.75
36092;BME280;22147;52.388;13.390;2023-04-05T08:09:25;101750.44;;;6.19;80.24
36092;BME280;22147;52.388;13.390;2023-04-05T08:11:55;101756.00;;;6.45;81.61
36092;BME280;22147;52.388;13.390;2023-04-05T08:14:26;101750.47;;;6.70;82.34
36092;BME280;22147;52.388;13.390;2023-04-05T08:16:56;101755.06;;;7.26;80.59
36092;BME280;22147;52.388;13.390;2023-04-05T08:19:26;101759.31;;;7.73;74.60
36092;BME280;22147;52.388;13.390;2023-04-05T08:21:56;101754.53;;;7.19;78.08
36092;BME280;22147;52.388;13.390;2023-04-05T08:24:26;101744.63;;;7.08;77.14
36092;BME280;22147;52.388;13.390;2023-04-05T08:26:57;101750.31;;;7.42;79.72
36092;BME280;22147;52.388;13.390;2023-04-05T08:29:27;101755.91;;;7.92;76.97
36092;BME280;22147;52.388;13.390;2023-04-05T08:31:57;101750.72;;;8.25;75.47
36092;BME280;22147;52.388;13.390;2023-04-05T08:34:27;101742.66;;;8.28;74.24
36092;BME280;22147;52.388;13.390;2023-04-05T08:36:59;101749.66;;;8.55;69.01
36092;BME280;22147;52.388;13.390;2023-04-05T08:39:29;101752.53;;;9.08;69.57
36092;BME280;22147;52.388;13.390;2023-04-05T08:42:11;101751.31;;;8.90;65.70
36092;BME280;22147;52.388;13.390;2023-04-05T08:44:50;101738.25;;;9.44;67.43
36092;BME280;22147;52.388;13.390;2023-04-05T08:47:22;101744.94;;;9.19;65.17
36092;BME280;22147;52.388;13.390;2023-04-05T08:49:53;101741.50;;;9.27;64.88
36092;BME280;22147;52.388;13.390;2023-04-05T08:52:25;101745.72;;;8.95;67.80
36092;BME280;22147;52.388;13.390;2023-04-05T08:54:55;101745.50;;;9.16;64.62
36092;BME280;22147;52.388;13.390;2023-04-05T08:57:29;101745.84;;;8.80;65.24
36092;BME280;22147;52.388;13.390;2023-04-05T09:00:02;101745.22;;;7.70;68.89
36092;BME280;22147;52.388;13.390;2023-04-05T09:02:35;101743.06;;;7.57;70.89
36092;BME280;22147;52.388;13.390;2023-04-05T09:05:09;101742.19;;;7.71;69.94
36092;BME280;22147;52.388;13.390;2023-04-05T09:07:42;101738.84;;;6.99;71.23
36092;BME280;22147;52.388;13.390;2023-04-05T09:10:18;101742.59;;;7.39;73.04
36092;BME280;22147;52.388;13.390;2023-04-05T09:12:49;101738.59;;;8.15;68.33
36092;BME280;22147;52.388;13.390;2023-04-05T09:15:20;101742.53;;;9.07;64.38
36092;BME280;22147;52.388;13.390;2023-04-05T09:17:56;101741.34;;;8.60;61.02
36092;BME280;22147;52.388;13.390;2023-04-05T09:20:26;101736.16;;;8.83;65.91
36092;BME280;22147;52.388;13.390;2023-04-05T09:22:57;101736.34;;;8.62;66.36
36092;BME280;22147;52.388;13.390;2023-04-05T09:28:06;101736.47;;;8.76;61.86
36092;BME280;22147;52.388;13.390;2023-04-05T09:30:37;101736.34;;;9.15;62.46
36092;BME280;22147;52.388;13.390;2023-04-05T09:33:07;101734.50;;;9.97;59.04
36092;BME280;22147;52.388;13.390;2023-04-05T09:35:39;101729.19;;;10.38;62.10
36092;BME280;22147;52.388;13.390;2023-04-05T09:38:09;101725.72;;;10.79;57.56
36092;BME280;22147;52.388;13.390;2023-04-05T09:40:58;101731.03;;;10.05;55.48
36092;BME280;22147;52.388;13.390;2023-04-05T09:43:40;101722.22;;;8.59;61.32
36092;BME280;22147;52.388;13.390;2023-04-05T09:46:34;101723.81;;;7.91;64.11
36092;BME280;22147;52.388;13.390;2023-04-05T09:49:08;101720.88;;;7.02;67.57
36092;BME280;22147;52.388;13.390;2023-04-05T09:51:39;101723.09;;;7.00;67.99
36092;BME280;22147;52.388;13.390;2023-04-05T09:54:10;101725.56;;;6.96;69.86
36092;BME280;22147;52.388;13.390;2023-04-05T09:56:53;101722.31;;;6.84;70.11
36092;BME280;22147;52.388;13.390;2023-04-05T09:59:27;101727.97;;;7.88;68.11
36092;BME280;22147;52.388;13.390;2023-04-05T10:01:58;101716.22;;;8.12;67.30
36092;BME280;22147;52.388;13.390;2023-04-05T10:04:43;101722.91;;;8.40;65.98
36092;BME280;22147;52.388;13.390;2023-04-05T10:07:18;101722.97;;;8.35;63.77
36092;BME280;22147;52.388;13.390;2023-04-05T10:09:49;101724.00;;;7.55;63.27
36092;BME280;22147;52.388;13.390;2023-04-05T10:12:27;101720.31;;;7.10;64.44
36092;BME280;22147;52.388;13.390;2023-04-05T10:14:58;101713.69;;;7.06;68.73
36092;BME280;22147;52.388;13.390;2023-04-05T10:20:42;101724.09;;;8.34;62.66
36092;BME280;22147;52.388;13.390;2023-04-05T10:23:27;101714.09;;;7.44;61.65
36092;BME280;22147;52.388;13.390;2023-04-05T10:26:54;101716.66;;;7.25;61.59
36092;BME280;22147;52.388;13.390;2023-04-05T10:30:04;101716.09;;;7.33;63.46
36092;BME280;22147;52.388;13.390;2023-04-05T10:33:18;101717.38;;;7.56;61.50
36092;BME280;22147;52.388;13.390;2023-04-05T10:36:07;101711.25;;;8.09;57.89
36092;BME280;22147;52.388;13.390;2023-04-05T10:39:19;101703.81;;;9.02;56.31
36092;BME280;22147;52.388;13.390;2023-04-05T10:44:48;101706.97;;;8.27;60.13
36092;BME280;22147;52.388;13.390;2023-04-05T10:47:27;101698.50;;;8.13;60.87
36092;BME280;22147;52.388;13.390;2023-04-05T10:50:07;101702.41;;;7.62;61.74
36092;BME280;22147;52.388;13.390;2023-04-05T10:52:43;101705.78;;;7.54;66.07
36092;BME280;22147;52.388;13.390;2023-04-05T10:55:16;101702.25;;;7.38;61.33
36092;BME280;22147;52.388;13.390;2023-04-05T10:57:49;101704.25;;;7.17;63.06
36092;BME280;22147;52.388;13.390;2023-04-05T11:00:22;101703.50;;;6.81;65.91
36092;BME280;22147;52.388;13.390;2023-04-05T11:02:53;101698.28;;;6.64;65.55
36092;BME280;22147;52.388;13.390;2023-04-05T11:05:35;101694.09;;;6.92;64.41
36092;BME280;22147;52.388;13.390;2023-04-05T11:08:08;101694.44;;;6.70;65.05
36092;BME280;22147;52.388;13.390;2023-04-05T11:10:40;101692.22;;;6.51;66.64
36092;BME280;22147;52.388;13.390;2023-04-05T11:13:10;101686.72;;;6.36;67.02
36092;BME280;22147;52.388;13.390;2023-04-05T11:15:41;101691.44;;;6.36;68.67
36092;BME280;22147;52.388;13.390;2023-04-05T11:21:05;101696.94;;;6.41;66.09
36092;BME280;22147;52.388;13.390;2023-04-05T11:24:03;101688.69;;;6.20;65.91
36092;BME280;22147;52.388;13.390;2023-04-05T11:26:53;101693.91;;;6.01;69.35
36092;BME280;22147;52.388;13.390;2023-04-05T11:29:46;101689.16;;;5.91;68.41
36092;BME280;22147;52.388;13.390;2023-04-05T11:32:21;101690.53;;;5.94;69.97
36092;BME280;22147;52.388;13.390;2023-04-05T11:35:07;101692.72;;;5.92;69.00
36092;BME280;22147;52.388;13.390;2023-04-05T11:38:06;101691.59;;;5.72;70.81
36092;BME280;22147;52.388;13.390;2023-04-05T11:40:38;101692.41;;;5.73;68.63
36092;BME280;22147;52.388;13.390;2023-04-05T11:43:11;101698.50;;;5.80;69.69
36092;BME280;22147;52.388;13.390;2023-04-05T11:45:41;101691.00;;;5.55;70.21
36092;BME280;22147;52.388;13.390;2023-04-05T11:48:13;101696.25;;;5.67;71.70
36092;BME280;22147;52.388;13.390;2023-04-05T11:50:46;101691.84;;;5.71;71.50
36092;BME280;22147;52.388;13.390;2023-04-05T11:53:19;101696.56;;;5.70;70.89
36092;BME280;22147;52.388;13.390;2023-04-05T11:55:51;101699.88;;;5.67;72.51
36092;BME280;22147;52.388;13.390;2023-04-05T11:58:23;101701.47;;;5.53;76.86
36092;BME280;22147;52.388;13.390;2023-04-05T12:00:58;101698.66;;;5.38;79.28
36092;BME280;22147;52.388;13.390;2023-04-05T12:03:30;101692.56;;;5.30;79.88
36092;BME280;22147;52.388;13.390;2023-04-05T12:06:04;101697.00;;;5.37;77.51
36092;BME280;22147;52.388;13.390;2023-04-05T12:11:27;101690.41;;;5.38;79.45
36092;BME280;22147;52.388;13.390;2023-04-05T12:14:01;101695.34;;;5.36;79.79
36092;BME280;22147;52.388;13.390;2023-04-05T12:16:31;101689.03;;;5.40;83.23
36092;BME280;22147;52.388;13.390;2023-04-05T12:19:01;101679.69;;;5.46;80.79
36092;BME280;22147;52.388;13.390;2023-04-05T12:21:32;101683.59;;;5.66;81.70
36092;BME280;22147;52.388;13.390;2023-04-05T12:24:02;101686.41;;;5.91;82.77
36092;BME280;22147;52.388;13.390;2023-04-05T12:26:36;101677.34;;;6.01;70.92
36092;BME280;22147;52.388;13.390;2023-04-05T12:29:07;101675.16;;;6.19;71.40
36092;BME280;22147;52.388;13.390;2023-04-05T12:31:44;101673.19;;;6.45;67.52
36092;BME280;22147;52.388;13.390;2023-04-05T12:34:23;101664.88;;;6.70;64.72
36092;BME280;22147;52.388;13.390;2023-04-05T12:36:59;101665.72;;;6.76;65.02
36092;BME280;22147;52.388;13.390;2023-04-05T12:39:31;101670.38;;;6.91;63.67
36092;BME280;22147;52.388;13.390;2023-04-05T12:42:03;101659.97;;;6.37;66.31
36092;BME280;22147;52.388;13.390;2023-04-05T12:44:35;101663.00;;;6.30;68.99
36092;BME280;22147;52.388;13.390;2023-04-05T12:47:06;101662.72;;;6.31;66.51
36092;BME280;22147;52.388;13.390;2023-04-05T12:49:39;101662.16;;;6.24;67.04
36092;BME280;22147;52.388;13.390;2023-04-05T12:52:10;101663.81;;;6.30;68.14
36092;BME280;22147;52.388;13.390;2023-04-05T12:54:55;101668.81;;;6.18;70.82
36092;BME280;22147;52.388;13.390;2023-04-05T12:57:31;101660.78;;;5.96;72.99
36092;BME280;22147;52.388;13.390;2023-04-05T13:00:02;101657.22;;;6.11;73.66
36092;BME280;22147;52.388;13.390;2023-04-05T13:02:33;101667.41;;;6.26;76.03
36092;BME280;22147;52.388;13.390;2023-04-05T13:05:03;101661.91;;;6.36;77.60
36092;BME280;22147;52.388;13.390;2023-04-05T13:07:31;101669.59;;;6.70;77.10
36092;BME280;22147;52.388;13.390;2023-04-05T13:10:00;101663.44;;;6.93;72.37
36092;BME280;22147;52.388;13.390;2023-04-05T13:12:28;101659.03;;;6.92;72.46
36092;BME280;22147;52.388;13.390;2023-04-05T13:14:57;101655.50;;;6.82;72.89
36092;BME280;22147;52.388;13.390;2023-04-05T13:17:25;101661.13;;;7.26;72.83
36092;BME280;22147;52.388;13.390;2023-04-05T13:19:54;101656.16;;;7.23;71.91
36092;BME280;22147;52.388;13.390;2023-04-05T13:22:22;101654.00;;;7.10;69.44
36092;BME280;22147;52.388;13.390;2023-04-05T13:24:50;101648.69;;;7.29;70.79
36092;BME280;22147;52.388;13.390;2023-04-05T13:27:22;101645.06;;;7.33;71.93
36092;BME280;22147;52.388;13.390;2023-04-05T13:29:50;101643.78;;;7.65;68.15